Time;durP1;ratioP1;P1;durP2;ratioP2;P2;SDS_P1;SDS_P2;PMS_P1;PMS_P2;Temp;Humidity;BMP_temperature;BMP_pressure;BME280_temperature;BME280_humidity;BME280_pressure;Samples;Min_cycle;Max_cycle;Signal;HPM_P1;HPM_P2
2022/11/27 00:02:01;;;;;;;8.33;2.50;;;6.30;99.90;;;;;;5068413;28;20102;-52
2022/11/27 00:04:27;;;;;;;11.30;3.47;;;6.30;99.90;;;;;;5069094;28;20434;-54
2022/11/27 00:06:52;;;;;;;12.97;3.13;;;6.30;99.90;;;;;;5063140;28;20029;-53
2022/11/27 00:09:18;;;;;;;10.97;2.67;;;6.30;99.90;;;;;;5048604;28;20128;-52
2022/11/27 00:11:44;;;;;;;10.03;2.33;;;6.30;99.90;;;;;;5048844;28;20037;-53
2022/11/27 00:14:12;;;;;;;9.93;2.83;;;6.30;99.90;;;;;;5048679;28;20032;-53
2022/11/27 00:16:37;;;;;;;10.73;3.00;;;6.30;99.90;;;;;;5048219;28;20124;-54
2022/11/27 00:19:03;;;;;;;6.67;2.90;;;6.30;99.90;;;;;;5048800;28;20120;-52
2022/11/27 00:21:32;;;;;;;12.40;2.77;;;6.30;99.90;;;;;;5048782;28;20033;-54
2022/11/27 00:23:59;;;;;;;8.90;2.33;;;6.30;99.90;;;;;;5048645;28;20076;-55
2022/11/27 00:26:26;;;;;;;13.27;2.73;;;6.40;99.90;;;;;;5048778;28;20032;-51
2022/11/27 00:28:54;;;;;;;9.00;2.77;;;6.30;99.90;;;;;;5048235;28;20025;-54
2022/11/27 00:31:27;;;;;;;9.73;2.60;;;6.30;99.90;;;;;;5048303;28;20036;-51
2022/11/27 00:33:54;;;;;;;9.07;2.63;;;6.30;99.90;;;;;;5048875;28;20077;-52
2022/11/27 00:36:19;;;;;;;13.03;2.90;;;6.30;99.90;;;;;;5048357;28;20033;-51
2022/11/27 00:38:45;;;;;;;6.77;2.53;;;6.20;99.90;;;;;;5048487;28;20029;-53
2022/11/27 00:41:14;;;;;;;13.67;2.77;;;6.20;99.90;;;;;;5047109;28;20037;-53
2022/11/27 00:43:40;;;;;;;7.85;2.38;;;6.20;99.90;;;;;;5048508;28;20397;-54
2022/11/27 00:46:06;;;;;;;10.80;2.47;;;6.20;99.90;;;;;;5048085;28;20025;-51
2022/11/27 00:48:32;;;;;;;12.20;2.50;;;6.20;99.90;;;;;;5046899;28;20126;-54
2022/11/27 00:51:04;;;;;;;14.13;2.80;;;6.10;99.90;;;;;;5048470;28;20497;-54
2022/11/27 00:53:29;;;;;;;7.27;1.97;;;6.20;99.90;;;;;;5048590;28;20029;-55
2022/11/27 00:55:56;;;;;;;9.10;2.37;;;6.20;99.90;;;;;;5048520;28;20120;-55
2022/11/27 00:58:22;;;;;;;6.97;2.20;;;6.20;99.90;;;;;;5047936;28;20539;-54
2022/11/27 01:00:55;;;;;;;11.70;2.67;;;6.20;99.90;;;;;;5047714;28;20450;-50
2022/11/27 01:03:22;;;;;;;10.30;2.33;;;6.20;99.90;;;;;;5048327;28;20117;-51
2022/11/27 01:05:48;;;;;;;5.47;2.10;;;6.20;99.90;;;;;;5048478;28;20128;-51
2022/11/27 01:08:13;;;;;;;9.73;2.40;;;6.10;99.90;;;;;;5049498;28;20116;-54
2022/11/27 01:10:39;;;;;;;9.43;2.40;;;6.10;99.90;;;;;;5051943;28;20032;-53
2022/11/27 01:13:05;;;;;;;9.80;2.17;;;6.10;99.90;;;;;;5051842;28;20131;-52
2022/11/27 01:15:31;;;;;;;12.20;2.43;;;6.10;99.90;;;;;;5051397;28;20025;-53
2022/11/27 01:17:56;;;;;;;10.20;2.27;;;6.10;99.90;;;;;;5051560;28;20074;-53
2022/11/27 01:20:22;;;;;;;9.23;2.50;;;6.10;99.90;;;;;;5051630;28;20057;-52
2022/11/27 01:22:48;;;;;;;9.67;2.67;;;6.10;99.90;;;;;;5051682;28;20362;-54
2022/11/27 01:25:13;;;;;;;8.43;2.40;;;6.00;99.90;;;;;;5051879;28;20098;-53
2022/11/27 01:27:40;;;;;;;9.90;2.23;;;6.00;99.90;;;;;;5050957;28;20040;-54
2022/11/27 01:30:06;;;;;;;9.10;3.60;;;6.00;99.90;;;;;;5051651;28;20132;-52
2022/11/27 01:32:32;;;;;;;10.90;2.53;;;6.00;99.90;;;;;;5050927;28;20504;-50
2022/11/27 01:34:58;;;;;;;11.10;2.57;;;6.00;99.90;;;;;;5051792;28;20033;-49
2022/11/27 01:37:23;;;;;;;10.50;2.63;;;6.00;99.90;;;;;;5051289;28;20397;-52
2022/11/27 01:39:49;;;;;;;10.40;2.90;;;6.00;99.90;;;;;;5051424;28;20037;-56
2022/11/27 01:42:15;;;;;;;9.23;2.40;;;6.00;99.90;;;;;;5050951;28;20165;-54
2022/11/27 01:44:48;;;;;;;11.20;2.83;;;5.90;99.90;;;;;;5051556;28;20028;-55
2022/11/27 01:47:25;;;;;;;10.90;2.40;;;6.00;99.90;;;;;;5050200;28;20601;-55
2022/11/27 01:49:55;;;;;;;13.63;3.70;;;5.90;99.90;;;;;;5051400;28;20047;-51
2022/11/27 01:52:33;;;;;;;10.87;2.53;;;5.90;99.90;;;;;;5051113;28;20124;-55
2022/11/27 01:55:00;;;;;;;6.07;2.20;;;5.90;99.90;;;;;;5051336;28;20033;-51
2022/11/27 01:57:34;;;;;;;6.13;2.17;;;5.90;99.90;;;;;;5050267;28;20084;-54
2022/11/27 02:00:01;;;;;;;8.33;2.90;;;5.80;99.90;;;;;;5051041;28;20036;-52
2022/11/27 02:02:27;;;;;;;6.50;1.97;;;5.90;99.90;;;;;;5050411;28;20055;-54
2022/11/27 02:04:57;;;;;;;11.67;2.67;;;5.80;99.90;;;;;;5051178;28;20040;-55
2022/11/27 02:07:23;;;;;;;4.90;2.17;;;5.80;99.90;;;;;;5050704;28;20025;-55
2022/11/27 02:09:49;;;;;;;11.97;2.57;;;5.80;99.90;;;;;;5050817;28;20112;-55
2022/11/27 02:12:26;;;;;;;11.63;2.60;;;5.80;99.90;;;;;;5050324;28;20033;-52
2022/11/27 02:14:55;;;;;;;8.20;2.27;;;5.80;99.90;;;;;;5051148;28;20025;-52
2022/11/27 02:17:38;;;;;;;11.53;2.67;;;5.80;99.90;;;;;;5049538;28;20159;-53
2022/11/27 02:20:27;;;;;;;5.97;1.80;;;5.80;99.90;;;;;;5049606;28;20073;-54
2022/11/27 02:23:14;;;;;;;9.02;2.80;;;5.80;99.90;;;;;;5050940;28;20111;-53
2022/11/27 02:25:53;;;;;;;8.07;2.30;;;5.80;99.90;;;;;;5050625;28;20028;-53
2022/11/27 02:28:25;;;;;;;;;;;5.80;99.90;;;;;;5050684;28;20032;-53
2022/11/27 02:31:01;;;;;;;7.03;2.37;;;5.80;99.90;;;;;;5049610;28;19912;-51
2022/11/27 02:33:31;;;;;;;9.73;2.40;;;5.80;99.90;;;;;;5050634;28;20036;-55
2022/11/27 02:36:06;;;;;;;6.55;1.67;;;5.70;99.90;;;;;;5050538;28;20071;-52
2022/11/27 02:38:38;;;;;;;5.23;1.70;;;5.70;99.90;;;;;;5049861;28;20104;-53
2022/11/27 02:41:19;;;;;;;10.67;2.70;;;5.70;99.90;;;;;;5050262;28;20041;-54
2022/11/27 02:43:49;;;;;;;8.90;2.47;;;5.70;99.90;;;;;;5050076;28;20032;-54
2022/11/27 02:46:16;;;;;;;11.97;3.20;;;5.60;99.90;;;;;;5049716;28;20029;-54
2022/11/27 02:48:54;;;;;;;6.30;2.30;;;5.50;99.90;;;;;;5050294;28;20044;-53
2022/11/27 02:51:34;;;;;;;8.17;3.00;;;5.50;99.90;;;;;;5050309;28;20090;-53
2022/11/27 02:54:03;;;;;;;4.43;2.13;;;5.50;99.90;;;;;;5049959;28;20029;-52
2022/11/27 02:56:30;;;;;;;7.50;2.60;;;5.50;99.90;;;;;;5049716;28;20032;-51
2022/11/27 02:59:00;;;;;;;12.57;2.93;;;5.50;99.90;;;;;;5049682;28;20033;-52
2022/11/27 03:01:31;;;;;;;9.03;3.27;;;5.40;99.90;;;;;;5047837;28;20025;-54
2022/11/27 03:04:00;;;;;;;9.90;3.10;;;5.40;99.90;;;;;;5050067;28;20020;-53
2022/11/27 03:06:45;;;;;;;8.20;3.30;;;5.40;99.90;;;;;;5049522;28;20090;-54
2022/11/27 03:09:23;;;;;;;14.60;3.67;;;5.40;99.90;;;;;;5049653;28;20021;-51
2022/11/27 03:11:49;;;;;;;17.00;3.23;;;5.40;99.90;;;;;;5049775;28;20575;-53
2022/11/27 03:14:15;;;;;;;10.47;4.17;;;5.40;99.90;;;;;;5049433;28;20066;-54
2022/11/27 03:17:06;;;;;;;10.47;3.90;;;5.40;99.90;;;;;;5048851;28;20072;-53
2022/11/27 03:19:47;;;;;;;11.93;4.07;;;5.40;99.90;;;;;;5049537;28;20040;-52
2022/11/27 03:22:13;;;;;;;8.93;2.90;;;5.40;99.90;;;;;;5049381;28;20033;-52
2022/11/27 03:24:39;;;;;;;13.00;4.00;;;5.40;99.90;;;;;;5049824;28;20033;-51
2022/11/27 03:27:05;;;;;;;10.50;3.80;;;5.30;99.90;;;;;;5048659;28;20546;-52
2022/11/27 03:29:40;;;;;;;11.13;3.60;;;5.30;99.90;;;;;;5049783;28;20037;-53
2022/11/27 03:32:06;;;;;;;10.63;3.87;;;5.30;99.90;;;;;;5048481;28;20041;-53
2022/11/27 03:34:32;;;;;;;11.23;3.90;;;5.30;99.90;;;;;;5049478;28;20029;-55
2022/11/27 03:36:58;;;;;;;15.33;4.37;;;5.30;99.90;;;;;;5049051;28;20040;-52
2022/11/27 03:39:26;;;;;;;12.27;5.10;;;5.30;99.90;;;;;;5049188;28;20112;-52
2022/11/27 03:42:13;;;;;;;9.00;3.43;;;5.30;99.90;;;;;;5049002;28;20146;-53
2022/11/27 03:44:42;;;;;;;11.13;4.60;;;5.30;99.90;;;;;;5049493;28;20025;-53
2022/11/27 03:47:20;;;;;;;18.52;5.07;;;5.30;99.90;;;;;;5048319;28;20036;-51
2022/11/27 03:49:57;;;;;;;13.27;4.17;;;5.40;99.90;;;;;;5049184;28;20029;-50
2022/11/27 03:52:51;;;;;;;14.67;3.90;;;5.40;99.90;;;;;;5048881;28;20075;-50
2022/11/27 03:55:28;;;;;;;12.07;4.10;;;5.40;99.90;;;;;;5049470;28;20086;-54
2022/11/27 03:57:57;;;;;;;11.77;4.13;;;5.40;99.90;;;;;;5048590;28;20037;-51
2022/11/27 04:00:23;;;;;;;11.35;4.88;;;5.40;99.90;;;;;;5048715;28;20125;-50
2022/11/27 04:02:52;;;;;;;10.47;4.17;;;5.40;99.90;;;;;;5048538;28;20051;-50
2022/11/27 04:05:19;;;;;;;16.13;4.50;;;5.40;99.90;;;;;;5049557;28;20136;-55
2022/11/27 04:07:45;;;;;;;12.90;4.73;;;5.40;99.90;;;;;;5048522;28;20033;-52
2022/11/27 04:10:11;;;;;;;9.07;4.10;;;5.40;99.90;;;;;;5049146;28;20036;-52
2022/11/27 04:12:37;;;;;;;12.83;4.63;;;5.40;99.90;;;;;;5048569;28;20106;-53
2022/11/27 04:15:04;;;;;;;13.80;5.20;;;5.50;99.90;;;;;;5049035;28;20486;-54
2022/11/27 04:17:30;;;;;;;14.03;5.07;;;5.50;99.90;;;;;;5047999;28;20219;-53
2022/11/27 04:19:56;;;;;;;13.23;4.70;;;5.50;99.90;;;;;;5048983;28;20163;-51
2022/11/27 04:22:21;;;;;;;13.23;4.23;;;5.50;99.90;;;;;;5048867;28;20627;-51
2022/11/27 04:24:48;;;;;;;11.37;3.87;;;5.50;99.90;;;;;;5049348;28;20033;-52
2022/11/27 04:27:13;;;;;;;11.47;4.37;;;5.50;99.90;;;;;;5048256;28;20037;-51
2022/11/27 04:29:39;;;;;;;12.77;4.50;;;5.50;99.90;;;;;;5048857;28;20112;-51
2022/11/27 04:32:05;;;;;;;15.07;5.70;;;5.60;99.90;;;;;;5048156;28;20029;-52
2022/11/27 04:34:31;;;;;;;13.57;5.00;;;5.60;99.90;;;;;;5049003;28;20511;-54
2022/11/27 04:36:57;;;;;;;12.23;4.80;;;5.60;99.90;;;;;;5048368;28;20489;-55
2022/11/27 04:39:23;;;;;;;15.87;5.73;;;5.60;99.90;;;;;;5048754;28;20405;-54
2022/11/27 04:41:49;;;;;;;13.23;4.80;;;5.60;99.90;;;;;;5048602;28;20120;-53
2022/11/27 04:44:15;;;;;;;9.20;3.67;;;5.70;99.90;;;;;;5051080;28;20087;-53
2022/11/27 04:46:41;;;;;;;12.20;5.03;;;5.70;99.90;;;;;;5051709;28;20053;-54
2022/11/27 04:49:07;;;;;;;10.37;4.27;;;5.70;99.90;;;;;;5052428;28;20068;-52
2022/11/27 04:51:33;;;;;;;17.13;5.67;;;5.70;99.90;;;;;;5052339;28;20116;-54
2022/11/27 04:53:59;;;;;;;19.50;5.97;;;5.70;99.90;;;;;;5052421;28;20124;-54
2022/11/27 04:56:24;;;;;;;16.17;5.50;;;5.70;99.90;;;;;;5051932;28;20036;-53
2022/11/27 04:58:50;;;;;;;12.27;5.47;;;5.70;99.90;;;;;;5051634;28;20041;-50
2022/11/27 05:01:16;;;;;;;12.87;4.83;;;5.70;99.90;;;;;;5051486;28;20024;-52
2022/11/27 05:03:42;;;;;;;11.77;4.70;;;5.80;99.90;;;;;;5052264;28;20033;-53
2022/11/27 05:06:08;;;;;;;13.20;5.80;;;5.80;99.90;;;;;;5052071;28;20032;-52
2022/11/27 05:08:33;;;;;;;14.43;5.83;;;5.70;99.90;;;;;;5051728;28;20380;-53
2022/11/27 05:11:04;;;;;;;17.90;5.63;;;5.70;99.90;;;;;;5051994;28;20032;-52
2022/11/27 05:13:30;;;;;;;13.53;5.03;;;5.80;99.90;;;;;;5051602;28;20040;-53
2022/11/27 05:15:56;;;;;;;13.40;5.30;;;5.80;99.90;;;;;;5051370;28;20029;-52
2022/11/27 05:18:22;;;;;;;10.20;4.00;;;5.80;99.90;;;;;;5051598;28;20025;-53
2022/11/27 05:21:04;;;;;;;14.50;5.33;;;5.80;99.90;;;;;;5051697;28;20057;-53
2022/11/27 05:23:31;;;;;;;12.43;5.37;;;5.80;99.90;;;;;;5051781;28;20342;-54
2022/11/27 05:25:57;;;;;;;14.87;5.30;;;5.80;99.90;;;;;;5051681;28;20059;-49
2022/11/27 05:28:24;;;;;;;14.63;5.33;;;5.80;99.90;;;;;;5051243;28;20413;-51
2022/11/27 05:30:49;;;;;;;12.03;5.33;;;5.80;99.90;;;;;;5050705;28;20082;-52
2022/11/27 05:33:17;;;;;;;13.37;5.93;;;5.80;99.90;;;;;;5051655;28;20029;-53
2022/11/27 05:35:44;;;;;;;15.23;6.23;;;5.80;99.90;;;;;;5051677;28;20037;-53
2022/11/27 05:38:11;;;;;;;13.97;5.00;;;5.80;99.90;;;;;;5051346;28;20124;-53
2022/11/27 05:40:37;;;;;;;12.73;5.10;;;5.80;99.90;;;;;;5051110;28;20024;-54
2022/11/27 05:43:03;;;;;;;10.17;4.10;;;5.80;99.90;;;;;;5051099;28;20036;-54
2022/11/27 05:45:29;;;;;;;8.33;3.63;;;5.80;99.90;;;;;;5050932;28;20078;-53
2022/11/27 05:47:55;;;;;;;11.80;4.90;;;5.80;99.90;;;;;;5051257;28;20432;-53
2022/11/27 05:50:20;;;;;;;11.27;4.00;;;5.80;99.90;;;;;;5051251;28;20031;-50
2022/11/27 05:52:46;;;;;;;13.40;5.23;;;5.80;99.90;;;;;;5051133;28;20044;-52
2022/11/27 05:55:12;;;;;;;16.60;6.20;;;5.80;99.90;;;;;;5051372;28;20041;-55
2022/11/27 05:57:38;;;;;;;14.53;5.73;;;5.80;99.90;;;;;;5050338;28;20037;-53
2022/11/27 06:00:05;;;;;;;14.00;4.93;;;5.80;99.90;;;;;;5051553;28;20036;-53
2022/11/27 06:02:31;;;;;;;15.83;5.67;;;5.80;99.90;;;;;;5050494;28;20061;-54
2022/11/27 06:04:57;;;;;;;15.60;5.57;;;5.80;99.90;;;;;;5051368;28;20378;-52
2022/11/27 06:07:22;;;;;;;13.53;5.43;;;5.80;99.90;;;;;;5050545;28;20040;-52
2022/11/27 06:09:48;;;;;;;11.87;5.13;;;5.80;99.90;;;;;;5050828;28;20048;-55
2022/11/27 06:12:14;;;;;;;10.73;4.10;;;5.80;99.90;;;;;;5050509;28;20032;-53
2022/11/27 06:14:39;;;;;;;13.93;5.07;;;5.90;99.90;;;;;;5051138;28;20087;-52
2022/11/27 06:17:05;;;;;;;12.90;5.37;;;5.90;99.90;;;;;;5049634;28;20103;-53
2022/11/27 06:19:31;;;;;;;12.50;4.70;;;5.90;99.90;;;;;;5050742;28;20508;-54
2022/11/27 06:21:57;;;;;;;13.40;5.27;;;5.90;99.90;;;;;;5050566;28;20427;-55
2022/11/27 06:24:22;;;;;;;12.33;5.07;;;5.90;99.90;;;;;;5050767;28;20139;-54
2022/11/27 06:26:48;;;;;;;15.07;5.43;;;5.90;99.90;;;;;;5050433;28;20025;-54
2022/11/27 06:29:14;;;;;;;14.60;4.73;;;5.90;99.90;;;;;;5050271;28;20028;-54
2022/11/27 06:31:40;;;;;;;13.50;5.00;;;5.90;99.90;;;;;;5049843;28;20036;-53
2022/11/27 06:34:06;;;;;;;10.87;3.90;;;5.90;99.90;;;;;;5050489;28;20025;-51
2022/11/27 06:36:37;;;;;;;13.03;5.23;;;6.00;99.90;;;;;;5050259;28;20044;-50
2022/11/27 06:39:04;;;;;;;11.13;4.63;;;5.90;99.90;;;;;;5050183;28;20033;-54
2022/11/27 06:41:30;;;;;;;12.97;4.90;;;6.00;99.90;;;;;;5050266;28;20043;-49
2022/11/27 06:43:58;;;;;;;12.70;5.10;;;6.00;99.90;;;;;;5050026;28;20453;-51
2022/11/27 06:46:25;;;;;;;11.30;4.27;;;6.00;99.90;;;;;;5049407;28;20053;-51
2022/11/27 06:48:53;;;;;;;10.33;3.77;;;6.00;99.90;;;;;;5050059;28;20025;-52
2022/11/27 06:51:22;;;;;;;12.83;4.77;;;6.00;99.90;;;;;;5050063;28;20071;-51
2022/11/27 06:53:48;;;;;;;12.90;4.55;;;6.00;99.90;;;;;;5050198;28;20033;-53
2022/11/27 06:56:17;;;;;;;9.40;4.03;;;6.10;99.90;;;;;;5050005;28;20112;-52
2022/11/27 06:58:44;;;;;;;11.57;4.50;;;6.10;99.90;;;;;;5047990;28;20619;-52
2022/11/27 07:01:15;;;;;;;12.33;4.80;;;6.10;99.90;;;;;;5049097;28;20611;-51
2022/11/27 07:03:41;;;;;;;11.40;3.87;;;6.10;99.90;;;;;;5049849;28;20040;-50
2022/11/27 07:06:11;;;;;;;11.30;4.87;;;6.10;99.90;;;;;;5049191;28;20036;-50
2022/11/27 07:08:37;;;;;;;;;;;6.30;99.90;;;;;;5049917;28;20035;-49
2022/11/27 07:11:07;;;;;;;8.80;3.93;;;6.30;99.90;;;;;;5049800;28;19991;-49
2022/11/27 07:13:33;;;;;;;11.17;4.43;;;6.40;99.90;;;;;;5049338;28;20033;-50
2022/11/27 07:16:04;;;;;;;13.20;4.57;;;6.40;99.90;;;;;;5049029;28;20365;-49
2022/11/27 07:18:34;;;;;;;9.10;4.23;;;6.40;99.90;;;;;;5049256;28;20037;-50
2022/11/27 07:21:00;;;;;;;11.70;4.30;;;6.30;99.90;;;;;;5049520;28;20095;-49
2022/11/27 07:23:26;;;;;;;11.30;4.40;;;6.30;99.90;;;;;;5048262;28;20025;-52
2022/11/27 07:25:51;;;;;;;9.87;3.90;;;6.30;99.90;;;;;;5049662;28;20496;-48
2022/11/27 07:28:17;;;;;;;8.50;4.20;;;6.30;99.90;;;;;;5048996;28;20025;-52
2022/11/27 07:30:43;;;;;;;9.10;4.20;;;6.30;99.90;;;;;;5048653;28;20200;-49
2022/11/27 07:33:08;;;;;;;8.73;3.40;;;6.40;99.90;;;;;;5049504;28;20033;-51
2022/11/27 07:35:34;;;;;;;12.00;4.33;;;6.50;99.90;;;;;;5049605;28;20056;-47
2022/11/27 07:38:00;;;;;;;10.57;4.13;;;6.40;99.90;;;;;;5048850;28;20074;-50
2022/11/27 07:40:26;;;;;;;8.63;4.30;;;6.50;99.90;;;;;;5048985;28;20029;-51
2022/11/27 07:42:51;;;;;;;9.20;3.67;;;6.40;99.90;;;;;;5049017;28;20056;-47
2022/11/27 07:45:17;;;;;;;9.67;3.57;;;6.50;99.90;;;;;;5049470;28;20430;-50
2022/11/27 07:47:43;;;;;;;7.83;3.60;;;6.50;99.90;;;;;;5048079;28;20456;-46
2022/11/27 07:50:09;;;;;;;10.83;3.50;;;6.50;99.90;;;;;;5049172;28;20112;-50
2022/11/27 07:52:36;;;;;;;10.53;3.70;;;6.60;99.90;;;;;;5049015;28;20033;-50
2022/11/27 07:55:02;;;;;;;11.17;4.30;;;6.60;99.90;;;;;;5049427;28;20033;-52
2022/11/27 07:57:28;;;;;;;8.67;3.77;;;6.60;99.90;;;;;;5048377;28;20033;-53
2022/11/27 07:59:54;;;;;;;10.00;3.90;;;6.60;99.90;;;;;;5048985;28;20448;-50
2022/11/27 08:02:19;;;;;;;8.50;3.70;;;6.70;99.90;;;;;;5048157;28;20087;-52
2022/11/27 08:04:45;;;;;;;6.70;3.80;;;6.80;99.90;;;;;;5049147;28;20025;-53
2022/11/27 08:07:11;;;;;;;9.50;3.90;;;6.80;99.90;;;;;;5048537;28;20040;-51
2022/11/27 08:09:38;;;;;;;8.53;3.90;;;6.90;99.90;;;;;;5048619;28;20021;-52
2022/11/27 08:12:05;;;;;;;10.03;3.67;;;6.90;99.90;;;;;;5048168;28;20220;-53
2022/11/27 08:14:31;;;;;;;9.23;4.17;;;6.90;99.90;;;;;;5048958;28;20033;-50
2022/11/27 08:16:57;;;;;;;12.77;4.60;;;7.00;99.90;;;;;;5047705;28;20024;-54
2022/11/27 08:19:22;;;;;;;11.23;4.80;;;7.10;99.90;;;;;;5052002;28;20021;-52
2022/11/27 08:21:49;;;;;;;11.23;4.47;;;7.10;99.90;;;;;;5052834;28;20043;-53
2022/11/27 08:24:14;;;;;;;6.60;3.87;;;7.20;99.90;;;;;;5052752;28;20464;-51
2022/11/27 08:26:40;;;;;;;11.03;4.40;;;7.20;99.90;;;;;;5052418;28;20052;-49
2022/11/27 08:29:06;;;;;;;8.50;3.30;;;7.20;99.90;;;;;;5051881;28;20115;-53
2022/11/27 08:31:33;;;;;;;8.20;3.37;;;7.30;99.90;;;;;;5051580;28;20040;-53
2022/11/27 08:33:58;;;;;;;8.67;3.07;;;7.40;99.90;;;;;;5052707;28;20396;-53
2022/11/27 08:36:25;;;;;;;7.50;3.13;;;7.50;99.90;;;;;;5052033;28;20319;-52
2022/11/27 08:38:51;;;;;;;8.47;3.20;;;7.60;99.90;;;;;;5052447;28;20029;-53
2022/11/27 08:41:17;;;;;;;11.90;5.47;;;7.50;99.90;;;;;;5052296;28;20112;-51
2022/11/27 08:43:43;;;;;;;19.50;9.17;;;7.60;99.90;;;;;;5052562;28;20546;-50
2022/11/27 08:46:09;;;;;;;7.90;3.10;;;7.70;99.90;;;;;;5051682;28;20108;-50
2022/11/27 08:48:35;;;;;;;7.80;2.60;;;7.70;99.90;;;;;;5051997;28;20390;-50
2022/11/27 08:51:10;;;;;;;7.30;3.13;;;7.70;99.90;;;;;;5052465;28;20029;-49
2022/11/27 08:53:36;;;;;;;8.23;3.37;;;7.70;99.90;;;;;;5052655;28;20048;-50
2022/11/27 08:56:25;;;;;;;6.30;2.93;;;7.70;99.90;;;;;;5052601;28;20102;-52
2022/11/27 08:58:51;;;;;;;9.02;3.28;;;7.70;99.90;;;;;;5046582;28;20044;-53
2022/11/27 09:01:20;;;;;;;7.27;3.50;;;7.80;99.90;;;;;;5051879;28;20036;-50
2022/11/27 09:03:46;;;;;;;5.63;2.83;;;7.90;99.90;;;;;;5052507;28;20021;-53
2022/11/27 09:06:22;;;;;;;6.73;3.00;;;7.90;99.90;;;;;;5052040;28;20383;-50
2022/11/27 09:08:49;;;;;;;8.70;3.03;;;7.90;99.90;;;;;;5052332;28;20086;-48
2022/11/27 09:11:16;;;;;;;9.67;3.57;;;7.80;99.90;;;;;;5052515;28;20028;-51
2022/11/27 09:13:43;;;;;;;11.23;4.40;;;7.90;99.90;;;;;;5052188;28;20088;-52
2022/11/27 09:16:11;;;;;;;8.40;3.63;;;7.90;99.90;;;;;;5051456;28;20033;-49
2022/11/27 09:18:37;;;;;;;8.27;2.83;;;7.90;99.90;;;;;;5051845;28;20036;-53
2022/11/27 09:21:06;;;;;;;7.43;3.40;;;8.00;99.90;;;;;;5052458;28;20029;-53
2022/11/27 09:23:32;;;;;;;8.15;2.97;;;8.00;99.90;;;;;;5051919;28;20036;-54
2022/11/27 09:25:59;;;;;;;9.00;2.93;;;8.10;99.90;;;;;;5051756;28;20120;-51
2022/11/27 09:28:25;;;;;;;7.83;3.23;;;8.20;99.90;;;;;;5050796;28;20044;-49
2022/11/27 09:30:56;;;;;;;8.80;3.30;;;8.20;99.90;;;;;;5050762;28;20501;-53
2022/11/27 09:33:23;;;;;;;7.37;2.83;;;8.20;99.90;;;;;;5052049;28;20083;-50
2022/11/27 09:35:49;;;;;;;7.10;3.20;;;8.20;99.90;;;;;;5051553;28;20044;-48
2022/11/27 09:38:14;;;;;;;7.70;2.90;;;8.20;99.90;;;;;;5051279;28;20036;-50
2022/11/27 09:40:48;;;;;;;15.90;3.47;;;8.20;99.90;;;;;;5051312;28;20460;-51
2022/11/27 09:43:16;;;;;;;9.07;3.20;;;8.30;99.90;;;;;;5051213;28;20021;-51
2022/11/27 09:45:49;;;;;;;7.03;3.43;;;8.40;99.90;;;;;;5050743;28;20556;-49
2022/11/27 09:48:46;;;;;;;5.83;3.13;;;8.40;99.90;;;;;;5051219;28;20461;-52
2022/11/27 09:52:10;;;;;;;8.67;2.90;;;8.40;99.90;;;;;;5049137;28;20051;-51
2022/11/27 09:55:00;;;;;;;7.23;2.80;;;8.50;99.90;;;;;;5033092;28;20037;-51
2022/11/27 09:57:31;;;;;;;7.93;3.00;;;8.50;99.90;;;;;;5050067;28;20049;-53
2022/11/27 10:00:01;;;;;;;7.03;3.17;;;8.50;99.90;;;;;;5051124;28;20124;-51
2022/11/27 10:02:30;;;;;;;8.80;3.60;;;8.50;99.90;;;;;;5050655;28;20033;-50
2022/11/27 10:04:58;;;;;;;8.05;2.83;;;8.50;99.90;;;;;;5051199;28;20079;-51
2022/11/27 10:07:29;;;;;;;7.07;3.07;;;8.60;99.90;;;;;;5050792;28;20033;-51
2022/11/27 10:10:07;;;;;;;7.97;2.73;;;8.60;99.90;;;;;;5050851;28;20501;-51
2022/11/27 10:13:05;;;;;;;6.93;2.80;;;8.70;99.90;;;;;;5050381;28;20420;-51
2022/11/27 10:15:36;;;;;;;9.67;3.50;;;8.70;99.90;;;;;;5032289;28;20482;-51
2022/11/27 10:18:35;;;;;;;8.93;3.13;;;8.70;99.90;;;;;;5050602;28;20036;-53
2022/11/27 10:21:38;;;;;;;7.75;2.72;;;8.70;99.90;;;;;;5050919;28;20056;-52
2022/11/27 10:24:28;;;;;;;7.07;3.10;;;8.70;99.90;;;;;;5050536;28;20093;-51
2022/11/27 10:26:57;;;;;;;7.63;3.07;;;8.80;99.90;;;;;;5050255;28;20032;-50
2022/11/27 10:29:38;;;;;;;7.10;3.17;;;8.70;99.90;;;;;;5050328;28;20021;-52
2022/11/27 10:32:19;;;;;;;11.37;3.67;;;8.80;99.90;;;;;;5049272;28;20440;-49
2022/11/27 10:34:54;;;;;;;8.80;3.30;;;8.80;99.90;;;;;;5050530;28;20036;-48
2022/11/27 10:37:19;;;;;;;8.83;4.10;;;8.80;99.90;;;;;;5049885;28;20044;-50
2022/11/27 10:39:50;;;;;;;7.60;3.60;;;8.70;99.90;;;;;;5050058;28;20024;-50
2022/11/27 10:42:23;;;;;;;6.90;2.93;;;8.80;99.90;;;;;;5049148;28;20037;-53
2022/11/27 10:45:01;;;;;;;7.43;3.20;;;8.70;99.90;;;;;;5050632;28;20374;-49
2022/11/27 10:47:28;;;;;;;16.63;7.43;;;8.70;99.90;;;;;;5049361;28;20112;-50
2022/11/27 10:49:54;;;;;;;34.57;16.00;;;8.70;99.90;;;;;;5049951;28;20108;-50
2022/11/27 10:52:20;;;;;;;18.50;8.90;;;8.60;99.90;;;;;;5049523;28;20447;-53
2022/11/27 10:54:55;;;;;;;11.07;6.40;;;8.60;99.90;;;;;;5049577;28;20510;-50
2022/11/27 10:57:55;;;;;;;10.40;4.47;;;8.60;99.90;;;;;;5048695;28;20085;-54
2022/11/27 11:00:24;;;;;;;8.13;3.37;;;8.50;99.90;;;;;;5049846;28;20160;-52
2022/11/27 11:03:04;;;;;;;8.63;3.50;;;8.60;99.90;;;;;;5046132;28;20021;-53
2022/11/27 11:05:31;;;;;;;7.20;3.10;;;8.60;99.90;;;;;;5029963;28;20048;-54
2022/11/27 11:08:03;;;;;;;5.63;2.73;;;8.60;99.90;;;;;;5030077;28;20040;-52
2022/11/27 11:10:37;;;;;;;13.87;4.87;;;8.60;99.90;;;;;;5029865;28;20035;-50
2022/11/27 11:13:22;;;;;;;12.67;5.20;;;8.60;99.90;;;;;;5029487;28;20112;-53
2022/11/27 11:16:04;;;;;;;7.83;4.07;;;8.60;99.90;;;;;;5029476;28;20045;-51
2022/11/27 11:18:32;;;;;;;10.70;4.13;;;8.60;99.90;;;;;;5029389;28;20456;-54
2022/11/27 11:21:01;;;;;;;8.80;3.73;;;8.60;99.90;;;;;;5029772;28;20059;-52
2022/11/27 11:23:33;;;;;;;7.32;3.50;;;8.80;99.90;;;;;;5029651;28;20087;-51
2022/11/27 11:26:04;;;;;;;10.33;3.70;;;8.70;99.90;;;;;;5029641;28;20030;-53
2022/11/27 11:28:33;;;;;;;6.93;3.27;;;8.70;99.90;;;;;;5033672;28;20033;-54
2022/11/27 11:31:08;;;;;;;6.82;3.13;;;8.70;99.90;;;;;;5048710;28;20100;-53
2022/11/27 11:33:55;;;;;;;8.07;3.67;;;8.70;99.90;;;;;;5049441;28;20146;-53
2022/11/27 11:36:21;;;;;;;8.37;3.40;;;8.70;99.90;;;;;;5049187;28;20036;-52
2022/11/27 11:38:49;;;;;;;8.50;3.27;;;8.70;99.90;;;;;;5048771;28;20213;-49
2022/11/27 11:41:17;;;;;;;6.20;3.17;;;8.80;99.90;;;;;;5049256;28;20025;-52
2022/11/27 11:44:01;;;;;;;6.33;3.20;;;8.80;99.90;;;;;;5049136;28;20033;-50
2022/11/27 11:46:32;;;;;;;6.93;2.87;;;8.90;99.90;;;;;;5048568;28;20021;-54
2022/11/27 11:49:19;;;;;;;6.87;3.47;;;8.90;99.90;;;;;;5049085;28;20033;-52
2022/11/27 11:52:07;;;;;;;6.87;3.20;;;8.90;99.90;;;;;;5048944;28;20044;-52
2022/11/27 11:55:13;;;;;;;6.10;3.30;;;9.00;99.90;;;;;;5049403;28;20616;-50
2022/11/27 11:57:48;;;;;;;9.80;3.40;;;9.10;99.90;;;;;;5049709;22;20069;-58
2022/11/27 12:00:23;;;;;;;8.27;3.50;;;9.10;99.90;;;;;;5009135;28;20037;-58
2022/11/27 12:02:54;;;;;;;7.83;3.40;;;9.10;99.90;;;;;;5008807;28;20041;-58
2022/11/27 12:05:35;;;;;;;9.33;3.70;;;9.30;99.90;;;;;;5009675;28;20072;-58
2022/11/27 12:08:07;;;;;;;11.37;5.33;;;9.30;99.90;;;;;;5009371;28;20029;-58
2022/11/27 12:10:47;;;;;;;9.33;4.37;;;9.30;99.90;;;;;;5009245;28;20157;-59
2022/11/27 12:13:21;;;;;;;8.23;4.50;;;9.40;99.90;;;;;;5009327;28;20101;-58
2022/11/27 12:16:06;;;;;;;8.60;3.70;;;9.30;99.90;;;;;;5009042;28;20034;-59
2022/11/27 12:18:41;;;;;;;7.37;2.77;;;9.30;99.90;;;;;;5009540;28;20426;-59
2022/11/27 12:21:16;;;;;;;8.67;3.40;;;9.40;99.90;;;;;;5009393;28;20038;-59
2022/11/27 12:24:15;;;;;;;8.47;2.97;;;9.50;99.90;;;;;;5009158;28;20034;-58
2022/11/27 12:27:03;;;;;;;7.47;3.20;;;9.50;99.90;;;;;;5009047;28;20030;-59
2022/11/27 12:30:11;;;;;;;7.00;3.23;;;9.50;99.90;;;;;;5009181;28;20017;-59
2022/11/27 12:32:52;;;;;;;9.20;3.23;;;9.60;99.90;;;;;;5008409;28;20109;-59
2022/11/27 12:35:30;;;;;;;6.40;3.17;;;9.70;99.90;;;;;;5008093;28;20038;-56
2022/11/27 12:38:23;;;;;;;4.83;2.67;;;9.80;99.90;;;;;;5008897;28;20034;-58
2022/11/27 12:41:22;;;;;;;6.43;2.47;;;9.80;99.90;;;;;;5008721;28;20581;-57
2022/11/27 12:43:58;;;;;;;6.70;3.00;;;9.80;99.90;;;;;;5009050;28;20391;-58
2022/11/27 12:46:48;;;;;;;5.53;2.63;;;9.80;99.90;;;;;;5008384;28;20073;-57
2022/11/27 12:49:25;;;;;;;7.87;2.90;;;9.80;99.90;;;;;;5008747;28;20040;-57
2022/11/27 12:52:27;;;;;;;7.47;3.10;;;9.80;99.90;;;;;;5008927;28;20259;-57
2022/11/27 12:55:00;;;;;;;6.03;2.70;;;9.80;99.90;;;;;;5006754;28;20061;-58
2022/11/27 12:57:38;;;;;;;6.60;3.27;;;9.80;99.90;;;;;;5006817;28;20030;-57
2022/11/27 13:00:12;;;;;;;5.47;2.50;;;9.80;99.90;;;;;;5006693;28;20037;-58
2022/11/27 13:03:16;;;;;;;6.03;2.80;;;9.80;99.90;;;;;;5005205;28;20030;-57
2022/11/27 13:05:45;;;;;;;6.27;2.60;;;9.70;99.90;;;;;;5009474;28;20063;-58
2022/11/27 13:08:38;;;;;;;10.48;2.85;;;9.70;99.90;;;;;;5012063;28;20056;-57
2022/11/27 13:11:08;;;;;;;7.83;3.60;;;9.70;99.90;;;;;;5007916;28;20494;-57
2022/11/27 13:13:42;;;;;;;6.30;2.43;;;9.80;99.90;;;;;;5012132;28;20119;-58